Argyle, Michigan
Current Conditions -  °F | °C
As of 1:14 PM on Thursday 29 Jan 2015 (Local Time) from KBAX Reporting Station
Light Snow Light Snow  
Wind Chill: 21°   Ceiling: 3100
Heat Index: 28°   Visibility: 5mi
Dew Point: 25°   Wind: 7mph
Humidity: 88%   Direction: 270°W
Pressure: 29.72"   Gusts: NA
Location:  43.56°N, 82.94°W
Report Text: KBAX 291814Z AUTO 27006KT 5SM -SN SCT023 BKN031 OVC050 M02/M04 A2972 RMK AO2 T10221040
Loading
Personal Weather Stations






























Interactive Weather Map New forecast layout! Learn more

10-Day Weather Forecast

Advertisements
Track Severe Weather on mobile